sensor_id;sensor_type;location;lat;lon;timestamp;P1;durP1;ratioP1;P2;durP2;ratioP2
16906;SDS011;8570;52.380;4.654;2023-05-10T00:01:18;29.80;;;21.65;;
16906;SDS011;8570;52.380;4.654;2023-05-10T00:06:20;25.77;;;21.83;;
16906;SDS011;8570;52.380;4.654;2023-05-10T00:11:23;25.52;;;21.48;;
16906;SDS011;8570;52.380;4.654;2023-05-10T00:16:26;31.88;;;23.10;;
16906;SDS011;8570;52.380;4.654;2023-05-10T00:21:28;27.55;;;21.70;;
16906;SDS011;8570;52.380;4.654;2023-05-10T00:26:30;24.63;;;21.38;;
16906;SDS011;8570;52.380;4.654;2023-05-10T00:31:33;28.38;;;22.77;;
16906;SDS011;8570;52.380;4.654;2023-05-10T00:36:35;25.83;;;21.33;;
16906;SDS011;8570;52.380;4.654;2023-05-10T00:41:37;30.60;;;22.60;;
16906;SDS011;8570;52.380;4.654;2023-05-10T00:46:40;28.63;;;23.63;;
16906;SDS011;8570;52.380;4.654;2023-05-10T00:51:43;28.73;;;22.45;;
16906;SDS011;8570;52.380;4.654;2023-05-10T00:56:46;28.27;;;22.88;;
16906;SDS011;8570;52.380;4.654;2023-05-10T01:01:53;30.33;;;22.77;;
16906;SDS011;8570;52.380;4.654;2023-05-10T01:06:55;29.15;;;22.40;;
16906;SDS011;8570;52.380;4.654;2023-05-10T01:11:59;32.13;;;22.63;;
16906;SDS011;8570;52.380;4.654;2023-05-10T01:17:04;32.53;;;23.38;;
16906;SDS011;8570;52.380;4.654;2023-05-10T01:22:10;32.42;;;23.33;;
16906;SDS011;8570;52.380;4.654;2023-05-10T01:33:20;30.52;;;21.30;;
16906;SDS011;8570;52.380;4.654;2023-05-10T01:38:28;28.15;;;19.65;;
16906;SDS011;8570;52.380;4.654;2023-05-10T01:43:42;29.40;;;20.17;;
16906;SDS011;8570;52.380;4.654;2023-05-10T01:48:54;26.70;;;19.40;;
16906;SDS011;8570;52.380;4.654;2023-05-10T01:53:59;32.50;;;21.58;;
16906;SDS011;8570;52.380;4.654;2023-05-10T01:59:04;38.10;;;21.98;;
16906;SDS011;8570;52.380;4.654;2023-05-10T02:04:11;27.40;;;20.98;;
16906;SDS011;8570;52.380;4.654;2023-05-10T02:09:17;33.15;;;22.10;;
16906;SDS011;8570;52.380;4.654;2023-05-10T02:14:21;28.02;;;21.83;;
16906;SDS011;8570;52.380;4.654;2023-05-10T02:19:26;31.17;;;22.45;;
16906;SDS011;8570;52.380;4.654;2023-05-10T02:24:30;26.42;;;16.88;;
16906;SDS011;8570;52.380;4.654;2023-05-10T02:29:33;31.83;;;16.20;;
16906;SDS011;8570;52.380;4.654;2023-05-10T02:34:37;36.38;;;14.60;;
16906;SDS011;8570;52.380;4.654;2023-05-10T02:39:40;43.95;;;12.82;;
16906;SDS011;8570;52.380;4.654;2023-05-10T02:44:45;38.42;;;12.43;;
16906;SDS011;8570;52.380;4.654;2023-05-10T02:49:54;28.33;;;11.77;;
16906;SDS011;8570;52.380;4.654;2023-05-10T02:55:03;20.17;;;11.73;;
16906;SDS011;8570;52.380;4.654;2023-05-10T03:00:11;18.23;;;11.63;;
16906;SDS011;8570;52.380;4.654;2023-05-10T03:05:15;17.10;;;11.25;;
16906;SDS011;8570;52.380;4.654;2023-05-10T03:10:17;18.00;;;12.02;;
16906;SDS011;8570;52.380;4.654;2023-05-10T03:15:22;18.80;;;11.82;;
16906;SDS011;8570;52.380;4.654;2023-05-10T03:20:38;21.73;;;12.85;;
16906;SDS011;8570;52.380;4.654;2023-05-10T03:25:43;17.85;;;11.98;;
16906;SDS011;8570;52.380;4.654;2023-05-10T03:30:47;20.55;;;12.32;;
16906;SDS011;8570;52.380;4.654;2023-05-10T03:35:52;18.50;;;12.27;;
16906;SDS011;8570;52.380;4.654;2023-05-10T03:40:54;21.92;;;13.45;;
16906;SDS011;8570;52.380;4.654;2023-05-10T03:45:56;19.52;;;12.57;;
16906;SDS011;8570;52.380;4.654;2023-05-10T03:51:00;20.95;;;13.73;;
16906;SDS011;8570;52.380;4.654;2023-05-10T03:56:02;20.27;;;12.57;;
16906;SDS011;8570;52.380;4.654;2023-05-10T04:01:04;20.63;;;12.57;;
16906;SDS011;8570;52.380;4.654;2023-05-10T04:06:12;20.42;;;13.10;;
16906;SDS011;8570;52.380;4.654;2023-05-10T04:11:14;19.02;;;12.43;;
16906;SDS011;8570;52.380;4.654;2023-05-10T04:16:16;20.33;;;13.18;;
16906;SDS011;8570;52.380;4.654;2023-05-10T04:21:20;19.90;;;13.82;;
16906;SDS011;8570;52.380;4.654;2023-05-10T04:26:22;18.00;;;13.52;;
16906;SDS011;8570;52.380;4.654;2023-05-10T04:31:26;20.48;;;13.60;;
16906;SDS011;8570;52.380;4.654;2023-05-10T04:36:30;18.58;;;13.32;;
16906;SDS011;8570;52.380;4.654;2023-05-10T04:41:32;20.80;;;14.30;;
16906;SDS011;8570;52.380;4.654;2023-05-10T04:46:34;18.23;;;13.65;;
16906;SDS011;8570;52.380;4.654;2023-05-10T04:51:39;20.25;;;13.70;;
16906;SDS011;8570;52.380;4.654;2023-05-10T04:56:41;22.27;;;14.75;;
16906;SDS011;8570;52.380;4.654;2023-05-10T05:01:43;19.63;;;14.25;;
16906;SDS011;8570;52.380;4.654;2023-05-10T05:06:47;17.83;;;13.02;;
16906;SDS011;8570;52.380;4.654;2023-05-10T05:11:49;21.38;;;13.95;;
16906;SDS011;8570;52.380;4.654;2023-05-10T05:16:50;21.88;;;13.80;;
16906;SDS011;8570;52.380;4.654;2023-05-10T05:21:54;21.05;;;13.40;;
16906;SDS011;8570;52.380;4.654;2023-05-10T05:26:56;18.35;;;13.10;;
16906;SDS011;8570;52.380;4.654;2023-05-10T05:31:59;16.98;;;13.23;;
16906;SDS011;8570;52.380;4.654;2023-05-10T05:37:05;19.50;;;13.07;;
16906;SDS011;8570;52.380;4.654;2023-05-10T05:42:07;22.25;;;13.50;;
16906;SDS011;8570;52.380;4.654;2023-05-10T05:47:09;20.40;;;13.70;;
16906;SDS011;8570;52.380;4.654;2023-05-10T05:52:13;18.85;;;13.70;;
16906;SDS011;8570;52.380;4.654;2023-05-10T05:57:15;18.77;;;13.77;;
16906;SDS011;8570;52.380;4.654;2023-05-10T06:02:17;18.92;;;13.85;;
16906;SDS011;8570;52.380;4.654;2023-05-10T06:07:22;17.48;;;12.68;;
16906;SDS011;8570;52.380;4.654;2023-05-10T06:12:24;17.63;;;12.40;;
16906;SDS011;8570;52.380;4.654;2023-05-10T06:17:26;18.08;;;12.85;;
16906;SDS011;8570;52.380;4.654;2023-05-10T06:22:33;17.63;;;11.63;;
16906;SDS011;8570;52.380;4.654;2023-05-10T06:27:38;21.92;;;11.88;;
16906;SDS011;8570;52.380;4.654;2023-05-10T06:32:42;18.50;;;12.80;;
16906;SDS011;8570;52.380;4.654;2023-05-10T06:37:46;20.98;;;12.68;;
16906;SDS011;8570;52.380;4.654;2023-05-10T06:42:48;24.80;;;12.07;;
16906;SDS011;8570;52.380;4.654;2023-05-10T06:47:50;12.60;;;9.70;;
16906;SDS011;8570;52.380;4.654;2023-05-10T06:52:54;13.63;;;8.95;;
16906;SDS011;8570;52.380;4.654;2023-05-10T06:57:56;11.68;;;7.95;;
16906;SDS011;8570;52.380;4.654;2023-05-10T07:02:58;11.27;;;7.45;;
16906;SDS011;8570;52.380;4.654;2023-05-10T07:08:01;11.43;;;7.80;;
16906;SDS011;8570;52.380;4.654;2023-05-10T07:13:04;7.57;;;6.78;;
16906;SDS011;8570;52.380;4.654;2023-05-10T07:18:10;9.52;;;7.90;;
16906;SDS011;8570;52.380;4.654;2023-05-10T07:23:13;11.02;;;7.85;;
16906;SDS011;8570;52.380;4.654;2023-05-10T07:28:15;10.95;;;7.88;;
16906;SDS011;8570;52.380;4.654;2023-05-10T07:33:17;12.55;;;8.20;;
16906;SDS011;8570;52.380;4.654;2023-05-10T07:38:21;9.15;;;7.53;;
16906;SDS011;8570;52.380;4.654;2023-05-10T07:43:24;8.27;;;7.47;;
16906;SDS011;8570;52.380;4.654;2023-05-10T07:48:31;10.27;;;7.50;;
16906;SDS011;8570;52.380;4.654;2023-05-10T07:53:36;12.43;;;7.93;;
16906;SDS011;8570;52.380;4.654;2023-05-10T07:58:40;12.27;;;8.45;;
16906;SDS011;8570;52.380;4.654;2023-05-10T08:03:42;9.65;;;8.30;;
16906;SDS011;8570;52.380;4.654;2023-05-10T08:08:46;15.93;;;8.40;;
16906;SDS011;8570;52.380;4.654;2023-05-10T08:13:50;12.38;;;7.78;;
16906;SDS011;8570;52.380;4.654;2023-05-10T08:18:52;14.90;;;8.40;;
16906;SDS011;8570;52.380;4.654;2023-05-10T08:23:56;10.85;;;7.95;;
16906;SDS011;8570;52.380;4.654;2023-05-10T08:28:58;11.90;;;6.90;;
16906;SDS011;8570;52.380;4.654;2023-05-10T08:34:03;10.80;;;7.50;;
16906;SDS011;8570;52.380;4.654;2023-05-10T08:39:07;13.30;;;7.93;;
16906;SDS011;8570;52.380;4.654;2023-05-10T08:44:09;12.25;;;7.20;;
16906;SDS011;8570;52.380;4.654;2023-05-10T08:49:14;11.55;;;7.53;;
16906;SDS011;8570;52.380;4.654;2023-05-10T08:54:20;9.10;;;6.47;;
16906;SDS011;8570;52.380;4.654;2023-05-10T08:59:24;11.32;;;7.10;;
16906;SDS011;8570;52.380;4.654;2023-05-10T09:04:27;13.15;;;7.60;;
16906;SDS011;8570;52.380;4.654;2023-05-10T09:09:30;10.95;;;7.30;;
16906;SDS011;8570;52.380;4.654;2023-05-10T09:14:33;12.55;;;7.20;;
16906;SDS011;8570;52.380;4.654;2023-05-10T09:19:39;10.75;;;5.95;;
16906;SDS011;8570;52.380;4.654;2023-05-10T09:24:43;9.02;;;6.40;;
16906;SDS011;8570;52.380;4.654;2023-05-10T09:29:45;8.85;;;5.68;;
16906;SDS011;8570;52.380;4.654;2023-05-10T09:34:47;7.57;;;5.35;;
16906;SDS011;8570;52.380;4.654;2023-05-10T09:39:52;9.30;;;5.13;;
16906;SDS011;8570;52.380;4.654;2023-05-10T09:44:59;7.13;;;4.80;;
16906;SDS011;8570;52.380;4.654;2023-05-10T09:50:02;5.75;;;5.00;;
16906;SDS011;8570;52.380;4.654;2023-05-10T09:55:07;8.30;;;5.13;;
16906;SDS011;8570;52.380;4.654;2023-05-10T10:00:10;10.27;;;5.95;;
16906;SDS011;8570;52.380;4.654;2023-05-10T10:05:17;8.32;;;5.38;;
16906;SDS011;8570;52.380;4.654;2023-05-10T10:10:23;10.40;;;5.40;;
16906;SDS011;8570;52.380;4.654;2023-05-10T10:15:27;7.63;;;5.50;;
16906;SDS011;8570;52.380;4.654;2023-05-10T10:20:30;8.18;;;4.90;;
16906;SDS011;8570;52.380;4.654;2023-05-10T10:25:34;8.50;;;6.45;;
16906;SDS011;8570;52.380;4.654;2023-05-10T10:30:37;10.35;;;7.57;;
16906;SDS011;8570;52.380;4.654;2023-05-10T10:35:44;15.05;;;9.15;;
16906;SDS011;8570;52.380;4.654;2023-05-10T10:40:49;13.57;;;9.32;;
16906;SDS011;8570;52.380;4.654;2023-05-10T10:46:12;18.90;;;11.60;;
16906;SDS011;8570;52.380;4.654;2023-05-10T10:51:14;20.67;;;13.35;;
16906;SDS011;8570;52.380;4.654;2023-05-10T10:56:18;20.50;;;12.02;;
16906;SDS011;8570;52.380;4.654;2023-05-10T11:01:24;19.77;;;11.20;;
16906;SDS011;8570;52.380;4.654;2023-05-10T11:36:58;9.45;;;7.65;;
16906;SDS011;8570;52.380;4.654;2023-05-10T11:42:00;13.68;;;9.60;;
16906;SDS011;8570;52.380;4.654;2023-05-10T11:47:03;13.05;;;9.60;;
16906;SDS011;8570;52.380;4.654;2023-05-10T11:52:06;19.30;;;11.90;;
16906;SDS011;8570;52.380;4.654;2023-05-10T11:57:11;18.10;;;12.32;;
16906;SDS011;8570;52.380;4.654;2023-05-10T12:02:13;14.00;;;9.95;;
16906;SDS011;8570;52.380;4.654;2023-05-10T12:07:17;15.82;;;10.07;;
16906;SDS011;8570;52.380;4.654;2023-05-10T12:12:19;16.98;;;11.20;;
16906;SDS011;8570;52.380;4.654;2023-05-10T12:17:21;28.35;;;12.82;;
16906;SDS011;8570;52.380;4.654;2023-05-10T12:22:24;14.32;;;10.80;;
16906;SDS011;8570;52.380;4.654;2023-05-10T12:27:26;14.68;;;10.50;;
16906;SDS011;8570;52.380;4.654;2023-05-10T12:32:39;16.27;;;11.65;;
16906;SDS011;8570;52.380;4.654;2023-05-10T12:37:43;15.77;;;10.85;;
16906;SDS011;8570;52.380;4.654;2023-05-10T12:42:45;14.52;;;9.45;;
16906;SDS011;8570;52.380;4.654;2023-05-10T12:47:46;15.15;;;9.98;;
16906;SDS011;8570;52.380;4.654;2023-05-10T12:52:50;16.73;;;10.48;;
16906;SDS011;8570;52.380;4.654;2023-05-10T12:57:52;13.90;;;9.32;;
16906;SDS011;8570;52.380;4.654;2023-05-10T13:02:53;14.00;;;9.65;;
16906;SDS011;8570;52.380;4.654;2023-05-10T13:07:57;12.98;;;9.40;;
16906;SDS011;8570;52.380;4.654;2023-05-10T13:12:58;14.95;;;10.93;;
16906;SDS011;8570;52.380;4.654;2023-05-10T13:18:00;13.38;;;10.65;;
16906;SDS011;8570;52.380;4.654;2023-05-10T13:23:04;11.82;;;9.65;;
16906;SDS011;8570;52.380;4.654;2023-05-10T13:28:06;15.23;;;10.13;;
16906;SDS011;8570;52.380;4.654;2023-05-10T13:33:07;11.02;;;8.95;;
16906;SDS011;8570;52.380;4.654;2023-05-10T13:38:11;13.95;;;10.18;;
16906;SDS011;8570;52.380;4.654;2023-05-10T13:43:13;11.77;;;7.45;;
16906;SDS011;8570;52.380;4.654;2023-05-10T13:48:15;12.70;;;8.48;;
16906;SDS011;8570;52.380;4.654;2023-05-10T13:53:18;12.52;;;8.10;;
16906;SDS011;8570;52.380;4.654;2023-05-10T13:58:20;16.98;;;9.35;;
16906;SDS011;8570;52.380;4.654;2023-05-10T14:03:23;15.02;;;9.27;;
16906;SDS011;8570;52.380;4.654;2023-05-10T14:08:26;15.43;;;8.75;;
16906;SDS011;8570;52.380;4.654;2023-05-10T14:13:28;13.85;;;8.70;;
16906;SDS011;8570;52.380;4.654;2023-05-10T14:18:30;14.55;;;8.75;;
16906;SDS011;8570;52.380;4.654;2023-05-10T14:23:33;15.35;;;10.35;;
16906;SDS011;8570;52.380;4.654;2023-05-10T14:28:35;14.73;;;8.98;;
16906;SDS011;8570;52.380;4.654;2023-05-10T14:33:37;15.88;;;11.50;;
16906;SDS011;8570;52.380;4.654;2023-05-10T14:38:41;11.60;;;8.30;;
16906;SDS011;8570;52.380;4.654;2023-05-10T14:43:43;12.02;;;9.02;;
16906;SDS011;8570;52.380;4.654;2023-05-10T14:48:45;9.98;;;8.02;;
16906;SDS011;8570;52.380;4.654;2023-05-10T14:53:48;11.90;;;9.15;;
16906;SDS011;8570;52.380;4.654;2023-05-10T14:58:50;11.77;;;7.78;;
16906;SDS011;8570;52.380;4.654;2023-05-10T15:03:53;9.43;;;7.05;;
16906;SDS011;8570;52.380;4.654;2023-05-10T15:08:57;8.65;;;6.45;;
16906;SDS011;8570;52.380;4.654;2023-05-10T15:13:59;7.30;;;6.10;;
16906;SDS011;8570;52.380;4.654;2023-05-10T15:19:01;7.95;;;5.55;;
16906;SDS011;8570;52.380;4.654;2023-05-10T15:24:05;5.88;;;5.28;;
16906;SDS011;8570;52.380;4.654;2023-05-10T15:29:07;7.15;;;5.03;;
16906;SDS011;8570;52.380;4.654;2023-05-10T15:34:09;7.32;;;5.40;;
16906;SDS011;8570;52.380;4.654;2023-05-10T15:39:12;6.90;;;5.88;;
16906;SDS011;8570;52.380;4.654;2023-05-10T15:44:14;7.38;;;5.97;;
16906;SDS011;8570;52.380;4.654;2023-05-10T15:49:16;6.85;;;5.43;;
16906;SDS011;8570;52.380;4.654;2023-05-10T15:54:21;7.05;;;5.30;;
16906;SDS011;8570;52.380;4.654;2023-05-10T15:59:23;8.65;;;6.30;;
16906;SDS011;8570;52.380;4.654;2023-05-10T16:04:36;7.68;;;6.00;;
16906;SDS011;8570;52.380;4.654;2023-05-10T16:09:54;7.93;;;6.03;;
16906;SDS011;8570;52.380;4.654;2023-05-10T16:15:08;14.57;;;7.97;;
16906;SDS011;8570;52.380;4.654;2023-05-10T16:20:11;7.63;;;6.82;;
16906;SDS011;8570;52.380;4.654;2023-05-10T16:25:14;9.57;;;7.03;;
16906;SDS011;8570;52.380;4.654;2023-05-10T16:30:16;9.45;;;6.68;;
16906;SDS011;8570;52.380;4.654;2023-05-10T16:35:23;8.82;;;6.53;;
16906;SDS011;8570;52.380;4.654;2023-05-10T16:40:26;8.15;;;6.35;;
16906;SDS011;8570;52.380;4.654;2023-05-10T16:45:29;9.95;;;7.10;;
16906;SDS011;8570;52.380;4.654;2023-05-10T16:50:32;7.20;;;6.20;;
16906;SDS011;8570;52.380;4.654;2023-05-10T16:55:35;8.23;;;6.50;;
16906;SDS011;8570;52.380;4.654;2023-05-10T17:00:37;11.93;;;7.78;;
16906;SDS011;8570;52.380;4.654;2023-05-10T17:05:39;15.48;;;12.65;;
16906;SDS011;8570;52.380;4.654;2023-05-10T17:10:43;14.55;;;11.57;;
16906;SDS011;8570;52.380;4.654;2023-05-10T17:15:45;10.32;;;8.75;;
16906;SDS011;8570;52.380;4.654;2023-05-10T17:20:47;10.40;;;7.80;;
16906;SDS011;8570;52.380;4.654;2023-05-10T17:25:50;10.93;;;7.80;;
16906;SDS011;8570;52.380;4.654;2023-05-10T17:30:55;10.63;;;7.68;;
16906;SDS011;8570;52.380;4.654;2023-05-10T17:35:57;10.00;;;8.15;;
16906;SDS011;8570;52.380;4.654;2023-05-10T17:41:00;10.90;;;8.25;;
16906;SDS011;8570;52.380;4.654;2023-05-10T17:46:02;12.18;;;8.60;;
16906;SDS011;8570;52.380;4.654;2023-05-10T17:51:04;11.55;;;8.57;;
16906;SDS011;8570;52.380;4.654;2023-05-10T17:56:08;8.98;;;7.30;;
16906;SDS011;8570;52.380;4.654;2023-05-10T18:01:10;11.15;;;8.65;;
16906;SDS011;8570;52.380;4.654;2023-05-10T18:06:12;9.77;;;8.15;;
16906;SDS011;8570;52.380;4.654;2023-05-10T18:11:15;9.60;;;7.50;;
16906;SDS011;8570;52.380;4.654;2023-05-10T18:16:17;12.88;;;9.27;;
16906;SDS011;8570;52.380;4.654;2023-05-10T18:21:19;13.02;;;9.98;;
16906;SDS011;8570;52.380;4.654;2023-05-10T18:26:23;11.98;;;9.63;;
16906;SDS011;8570;52.380;4.654;2023-05-10T18:31:25;10.60;;;8.52;;
16906;SDS011;8570;52.380;4.654;2023-05-10T18:36:27;13.68;;;9.73;;
16906;SDS011;8570;52.380;4.654;2023-05-10T18:41:30;11.00;;;9.30;;
16906;SDS011;8570;52.380;4.654;2023-05-10T18:46:32;10.35;;;8.48;;
16906;SDS011;8570;52.380;4.654;2023-05-10T18:51:43;12.23;;;9.32;;
16906;SDS011;8570;52.380;4.654;2023-05-10T18:56:47;8.52;;;7.57;;
16906;SDS011;8570;52.380;4.654;2023-05-10T19:01:49;11.68;;;9.20;;
16906;SDS011;8570;52.380;4.654;2023-05-10T19:06:55;10.35;;;8.88;;
16906;SDS011;8570;52.380;4.654;2023-05-10T19:11:58;8.40;;;7.53;;
16906;SDS011;8570;52.380;4.654;2023-05-10T19:17:03;10.80;;;7.63;;
16906;SDS011;8570;52.380;4.654;2023-05-10T19:22:05;8.27;;;7.22;;
16906;SDS011;8570;52.380;4.654;2023-05-10T19:27:08;9.30;;;8.32;;
16906;SDS011;8570;52.380;4.654;2023-05-10T19:32:10;8.18;;;6.93;;
16906;SDS011;8570;52.380;4.654;2023-05-10T19:37:14;8.65;;;6.88;;
16906;SDS011;8570;52.380;4.654;2023-05-10T19:42:18;9.10;;;6.78;;
16906;SDS011;8570;52.380;4.654;2023-05-10T19:47:20;10.32;;;7.80;;
16906;SDS011;8570;52.380;4.654;2023-05-10T19:52:22;9.40;;;7.07;;
16906;SDS011;8570;52.380;4.654;2023-05-10T19:57:33;11.18;;;8.55;;
16906;SDS011;8570;52.380;4.654;2023-05-10T20:02:37;13.40;;;8.70;;
16906;SDS011;8570;52.380;4.654;2023-05-10T20:07:39;12.40;;;9.52;;
16906;SDS011;8570;52.380;4.654;2023-05-10T20:12:44;11.20;;;9.48;;
16906;SDS011;8570;52.380;4.654;2023-05-10T20:17:50;13.63;;;9.93;;
16906;SDS011;8570;52.380;4.654;2023-05-10T20:22:52;14.05;;;10.45;;
16906;SDS011;8570;52.380;4.654;2023-05-10T20:27:56;14.30;;;10.13;;
16906;SDS011;8570;52.380;4.654;2023-05-10T20:32:58;15.23;;;11.18;;
16906;SDS011;8570;52.380;4.654;2023-05-10T20:38:00;16.83;;;11.75;;
16906;SDS011;8570;52.380;4.654;2023-05-10T20:43:04;16.73;;;11.52;;
16906;SDS011;8570;52.380;4.654;2023-05-10T20:48:06;18.05;;;11.23;;
16906;SDS011;8570;52.380;4.654;2023-05-10T20:53:10;18.13;;;11.38;;
16906;SDS011;8570;52.380;4.654;2023-05-10T20:58:14;17.95;;;12.05;;
16906;SDS011;8570;52.380;4.654;2023-05-10T21:03:17;21.02;;;12.75;;
16906;SDS011;8570;52.380;4.654;2023-05-10T21:08:19;17.17;;;11.93;;
16906;SDS011;8570;52.380;4.654;2023-05-10T21:13:22;18.35;;;12.25;;
16906;SDS011;8570;52.380;4.654;2023-05-10T21:18:24;19.88;;;12.38;;
16906;SDS011;8570;52.380;4.654;2023-05-10T21:23:26;17.17;;;12.20;;
16906;SDS011;8570;52.380;4.654;2023-05-10T21:28:29;18.95;;;12.75;;
16906;SDS011;8570;52.380;4.654;2023-05-10T21:33:31;17.25;;;12.73;;
16906;SDS011;8570;52.380;4.654;2023-05-10T21:38:34;18.08;;;12.18;;
16906;SDS011;8570;52.380;4.654;2023-05-10T21:43:37;17.33;;;12.00;;
16906;SDS011;8570;52.380;4.654;2023-05-10T21:48:41;15.45;;;9.85;;
16906;SDS011;8570;52.380;4.654;2023-05-10T21:53:44;13.35;;;9.05;;
16906;SDS011;8570;52.380;4.654;2023-05-10T21:58:47;11.52;;;7.45;;
16906;SDS011;8570;52.380;4.654;2023-05-10T22:03:49;9.32;;;7.07;;
16906;SDS011;8570;52.380;4.654;2023-05-10T22:08:51;10.25;;;7.18;;
16906;SDS011;8570;52.380;4.654;2023-05-10T22:13:54;9.43;;;6.97;;
16906;SDS011;8570;52.380;4.654;2023-05-10T22:18:57;7.25;;;5.93;;
16906;SDS011;8570;52.380;4.654;2023-05-10T22:23:58;9.13;;;6.75;;
16906;SDS011;8570;52.380;4.654;2023-05-10T22:29:05;8.30;;;6.53;;
16906;SDS011;8570;52.380;4.654;2023-05-10T22:34:07;6.95;;;5.43;;
16906;SDS011;8570;52.380;4.654;2023-05-10T22:39:08;7.05;;;5.70;;
16906;SDS011;8570;52.380;4.654;2023-05-10T22:44:12;6.15;;;5.05;;
16906;SDS011;8570;52.380;4.654;2023-05-10T22:49:14;5.30;;;4.80;;
16906;SDS011;8570;52.380;4.654;2023-05-10T22:54:16;6.05;;;5.45;;
16906;SDS011;8570;52.380;4.654;2023-05-10T22:59:19;7.05;;;6.05;;
16906;SDS011;8570;52.380;4.654;2023-05-10T23:04:21;6.47;;;5.78;;
16906;SDS011;8570;52.380;4.654;2023-05-10T23:15:13;7.07;;;6.13;;
16906;SDS011;8570;52.380;4.654;2023-05-10T23:20:15;8.45;;;6.35;;
16906;SDS011;8570;52.380;4.654;2023-05-10T23:25:17;8.25;;;6.70;;
16906;SDS011;8570;52.380;4.654;2023-05-10T23:30:21;6.82;;;5.40;;
16906;SDS011;8570;52.380;4.654;2023-05-10T23:35:23;5.97;;;5.03;;
16906;SDS011;8570;52.380;4.654;2023-05-10T23:52:50;8.18;;;6.93;;
16906;SDS011;8570;52.380;4.654;2023-05-10T23:57:53;7.07;;;6.38;;
